createdAt,value
2022-11-18T00:00:02.132Z,0
2022-11-18T00:05:02.067Z,0
2022-11-18T00:10:02.245Z,0
2022-11-18T00:15:02.093Z,0
2022-11-18T00:20:02.087Z,0
2022-11-18T00:25:02.120Z,0
2022-11-18T00:30:02.112Z,0
2022-11-18T00:35:02.167Z,0
2022-11-18T00:40:02.269Z,0
2022-11-18T00:45:02.252Z,0
2022-11-18T00:50:02.134Z,0
2022-11-18T00:55:02.158Z,0
2022-11-18T01:00:02.119Z,0
2022-11-18T01:05:02.302Z,0
2022-11-18T01:10:02.157Z,0
2022-11-18T01:15:02.283Z,0
2022-11-18T01:20:02.136Z,0
2022-11-18T01:25:02.186Z,0
2022-11-18T01:30:02.261Z,0
2022-11-18T01:35:02.357Z,0
2022-11-18T01:40:02.169Z,0
2022-11-18T01:45:02.361Z,0
2022-11-18T01:50:02.182Z,0
2022-11-18T01:55:02.245Z,0
2022-11-18T02:00:02.314Z,0
2022-11-18T02:05:02.221Z,0
2022-11-18T02:10:02.245Z,0
2022-11-18T02:15:02.210Z,0
2022-11-18T02:20:02.306Z,0
2022-11-18T02:25:02.414Z,0
2022-11-18T02:30:02.199Z,0
2022-11-18T02:35:02.194Z,0
2022-11-18T02:40:02.213Z,0
2022-11-18T02:45:02.353Z,0
2022-11-18T02:50:02.315Z,0
2022-11-18T02:55:02.456Z,0
2022-11-18T03:00:02.243Z,0
2022-11-18T03:05:02.240Z,0
2022-11-18T03:10:02.292Z,0
2022-11-18T03:15:02.252Z,0
2022-11-18T03:20:02.442Z,0
2022-11-18T03:25:02.264Z,0
2022-11-18T03:30:02.251Z,0
2022-11-18T03:35:02.313Z,0
2022-11-18T03:40:02.254Z,0
2022-11-18T03:45:02.385Z,0
2022-11-18T03:50:02.463Z,0
2022-11-18T03:55:02.270Z,0
2022-11-18T04:00:02.318Z,0
2022-11-18T04:05:02.288Z,0
2022-11-18T04:10:02.323Z,0
2022-11-18T04:15:02.501Z,0
2022-11-18T04:20:02.299Z,0
2022-11-18T04:25:02.356Z,0
2022-11-18T04:30:02.307Z,0
2022-11-18T04:35:02.335Z,0
2022-11-18T04:40:02.436Z,0
2022-11-18T04:45:02.477Z,0
2022-11-18T04:50:02.438Z,0
2022-11-18T04:55:02.308Z,0
2022-11-18T05:00:02.346Z,0
2022-11-18T05:05:02.407Z,0
2022-11-18T05:10:02.485Z,0
2022-11-18T05:15:02.435Z,0
2022-11-18T05:20:02.402Z,0
2022-11-18T05:25:02.341Z,0
2022-11-18T05:30:02.352Z,0
2022-11-18T05:35:02.403Z,0
2022-11-18T05:40:02.556Z,0
2022-11-18T05:45:02.364Z,0
2022-11-18T05:50:02.442Z,0
2022-11-18T05:55:02.393Z,0
2022-11-18T06:00:02.410Z,0
2022-11-18T06:05:02.537Z,0
2022-11-18T06:10:05.679Z,0
2022-11-18T06:15:02.367Z,0
2022-11-18T06:20:02.434Z,0
2022-11-18T06:25:02.685Z,0
2022-11-18T06:30:02.518Z,0
2022-11-18T06:35:02.627Z,0
2022-11-18T06:40:02.545Z,0
2022-11-18T06:45:02.571Z,0
2022-11-18T06:50:02.454Z,0
2022-11-18T06:55:02.490Z,0
2022-11-18T07:00:02.861Z,0
2022-11-18T07:05:02.609Z,0
2022-11-18T07:10:02.484Z,0.09938624338624337
2022-11-18T07:15:02.445Z,0.36562962962962964
2022-11-18T07:20:02.489Z,0.4860105820105821
2022-11-18T07:25:02.502Z,1.0897248677248677
2022-11-18T07:30:02.725Z,1.5755873015873014
2022-11-18T07:35:02.632Z,4.317746031746031
2022-11-18T07:40:02.486Z,2.334486772486773
2022-11-18T07:45:02.513Z,2.409343915343915
2022-11-18T07:50:02.471Z,8.993068783068784
2022-11-18T07:55:02.512Z,12.451915343915346
2022-11-18T08:00:02.623Z,14.055640211640211
2022-11-18T08:05:02.616Z,12.91663492063492
2022-11-18T08:10:02.516Z,18.75768253968254
2022-11-18T08:15:02.465Z,23.82182010582011
2022-11-18T08:20:02.525Z,27.21242328042328
2022-11-18T08:25:02.552Z,28.866656084656086
2022-11-18T08:30:02.689Z,29.087312169312174
2022-11-18T08:35:05.423Z,6.307343915343915
2022-11-18T08:40:02.484Z,6.686328042328044
2022-11-18T08:45:02.560Z,6.128031746031747
2022-11-18T08:50:02.541Z,4.74037037037037
2022-11-18T08:55:02.818Z,5.970910052910053
2022-11-18T09:00:02.601Z,6.866751322751323
2022-11-18T09:05:02.583Z,17.117164021164022
2022-11-18T09:10:02.541Z,6.035513227513228
2022-11-18T09:15:15.204Z,5.431703703703705
2022-11-18T09:20:02.707Z,4.202962962962963
2022-11-18T09:25:02.545Z,3.126719576719577
2022-11-18T09:30:02.544Z,6.646507936507937
2022-11-18T09:35:02.600Z,10.334338624338626
2022-11-18T09:40:02.548Z,6.176941798941799
2022-11-18T09:45:02.744Z,8.509904761904764
2022-11-18T09:50:15.103Z,4.9685291005291
2022-11-18T09:55:02.594Z,8.969354497354498
2022-11-18T10:00:02.578Z,46.05138624338624
2022-11-18T10:05:02.970Z,13.31488888888889
2022-11-18T10:10:02.663Z,8.215968253968253
2022-11-18T10:15:02.789Z,3.287259259259259
2022-11-18T10:20:02.559Z,6.29005291005291
2022-11-18T10:25:02.671Z,10.544285714285714
2022-11-18T10:30:02.717Z,14.661608465608463
2022-11-18T10:35:02.624Z,16.130338624338624
2022-11-18T10:40:02.767Z,13.438328042328044
2022-11-18T10:45:02.648Z,5.563089947089947
2022-11-18T10:50:02.643Z,5.191396825396826
2022-11-18T10:55:02.769Z,11.479121693121694
2022-11-18T11:00:02.699Z,45.014857142857146
2022-11-18T11:05:02.817Z,18.37541798941799
2022-11-18T11:10:02.634Z,15.01873015873016
2022-11-18T11:15:02.707Z,6.250253968253968
2022-11-18T11:20:02.666Z,8.009555555555556
2022-11-18T11:25:02.653Z,17.392000000000003
2022-11-18T11:30:02.779Z,24.148285714285713
2022-11-18T11:35:02.709Z,10.372677248677249
2022-11-18T11:40:02.670Z,9.368920634920636
2022-11-18T11:45:02.650Z,9.122359788359788
2022-11-18T11:50:02.725Z,11.26288888888889
2022-11-18T11:55:02.780Z,8.239597883597884
2022-11-18T12:00:02.860Z,6.524412698412699
2022-11-18T12:05:02.699Z,9.764814814814816
2022-11-18T12:10:02.730Z,12.728243386243385
2022-11-18T12:15:02.763Z,13.899354497354496
2022-11-18T12:20:02.788Z,10.292761904761907
2022-11-18T12:25:02.895Z,6.249428571428572
2022-11-18T12:30:02.707Z,3.66189417989418
2022-11-18T12:35:02.732Z,3.479904761904762
2022-11-18T12:40:02.799Z,9.20279365079365
2022-11-18T12:45:02.802Z,11.454402116402116
2022-11-18T12:50:02.906Z,52.96096296296297
2022-11-18T12:55:02.725Z,43.23024338624339
2022-11-18T13:00:02.915Z,4.028857142857143
2022-11-18T13:05:02.831Z,7.205714285714286
2022-11-18T13:10:02.817Z,22.392550264550266
2022-11-18T13:15:03.024Z,7.139396825396825
2022-11-18T13:20:02.811Z,9.32562962962963
2022-11-18T13:25:02.799Z,6.767111111111111
2022-11-18T13:30:02.790Z,3.6927724867724865
2022-11-18T13:35:02.823Z,2.7925502645502647
2022-11-18T13:40:02.935Z,3.617005291005291
2022-11-18T13:45:02.782Z,3.312994708994709
2022-11-18T13:50:02.852Z,4.121142857142857
2022-11-18T13:55:01.289Z,5.534656084656085
2022-11-18T14:00:01.229Z,7.700973544973544
2022-11-18T14:05:01.265Z,4.88184126984127
2022-11-18T14:10:01.307Z,3.530666666666667
2022-11-18T14:15:01.301Z,1.7169417989417992
2022-11-18T14:20:01.454Z,0.6938201058201058
2022-11-18T14:25:01.244Z,0.44735449735449734
2022-11-18T14:30:01.241Z,0.38880423280423276
2022-11-18T14:35:01.223Z,0.4476084656084656
2022-11-18T14:40:01.211Z,0.33980952380952384
2022-11-18T14:45:01.333Z,0.329936507936508
2022-11-18T14:50:01.266Z,0.12718518518518518
2022-11-18T14:55:01.260Z,0
2022-11-18T15:00:01.270Z,0
2022-11-18T15:05:01.280Z,0
2022-11-18T15:10:01.360Z,0
2022-11-18T15:15:01.492Z,0
2022-11-18T15:20:01.292Z,0
2022-11-18T15:25:01.323Z,0
2022-11-18T15:30:01.928Z,0
2022-11-18T15:35:01.298Z,0
2022-11-18T15:40:01.415Z,0
2022-11-18T15:45:01.459Z,0
2022-11-18T15:50:01.310Z,0
2022-11-18T15:55:03.118Z,0
2022-11-18T16:00:01.369Z,0
2022-11-18T16:05:01.339Z,0
2022-11-18T16:10:01.492Z,0
2022-11-18T16:15:01.325Z,0
2022-11-18T16:20:01.462Z,0
2022-11-18T16:25:01.363Z,0
2022-11-18T16:30:01.484Z,0
2022-11-18T16:35:01.833Z,0
2022-11-18T16:40:01.564Z,0
2022-11-18T16:45:01.370Z,0
2022-11-18T16:50:01.374Z,0
2022-11-18T16:55:01.452Z,0
2022-11-18T17:00:01.485Z,0
2022-11-18T17:05:01.589Z,0
2022-11-18T17:10:01.371Z,0
2022-11-18T17:15:01.380Z,0
2022-11-18T17:20:01.353Z,0
2022-11-18T17:25:05.249Z,0
2022-11-18T17:30:01.563Z,0
2022-11-18T17:35:01.365Z,0
2022-11-18T17:40:01.420Z,0
2022-11-18T17:45:01.451Z,0
2022-11-18T17:50:01.423Z,0
2022-11-18T17:55:01.676Z,0
2022-11-18T18:00:01.424Z,0
2022-11-18T18:05:01.425Z,0
2022-11-18T18:10:01.437Z,0
2022-11-18T18:15:01.448Z,0
2022-11-18T18:20:01.589Z,0
2022-11-18T18:25:01.540Z,0
2022-11-18T18:30:01.434Z,0
2022-11-18T18:35:01.535Z,0
2022-11-18T18:40:01.483Z,0
2022-11-18T18:45:01.672Z,0
2022-11-18T18:50:01.463Z,0
2022-11-18T18:55:01.583Z,0
2022-11-18T19:00:01.509Z,0
2022-11-18T19:05:01.526Z,0
2022-11-18T19:10:01.540Z,0
2022-11-18T19:15:01.707Z,0
2022-11-18T19:20:01.548Z,0
2022-11-18T19:25:01.839Z,0
2022-11-18T19:30:01.575Z,0
2022-11-18T19:35:01.611Z,0
2022-11-18T19:40:04.246Z,0
2022-11-18T19:45:01.624Z,0
2022-11-18T19:50:01.505Z,0
2022-11-18T19:55:01.511Z,0
2022-11-18T20:00:01.610Z,0
2022-11-18T20:05:01.689Z,0
2022-11-18T20:10:01.525Z,0
2022-11-18T20:15:01.548Z,0
2022-11-18T20:20:01.704Z,0
2022-11-18T20:25:01.622Z,0
2022-11-18T20:30:01.697Z,0
2022-11-18T20:35:01.571Z,0
2022-11-18T20:40:01.562Z,0
2022-11-18T20:45:01.621Z,0
2022-11-18T20:50:01.615Z,0
2022-11-18T20:55:05.570Z,0
2022-11-18T21:00:01.793Z,0
2022-11-18T21:05:01.573Z,0
2022-11-18T21:10:01.621Z,0
2022-11-18T21:15:01.605Z,0
2022-11-18T21:20:01.677Z,0
2022-11-18T21:25:01.834Z,0
2022-11-18T21:30:01.609Z,0
2022-11-18T21:35:01.641Z,0
2022-11-18T21:40:01.639Z,0
2022-11-18T21:45:01.698Z,0
2022-11-18T21:50:01.901Z,0
2022-11-18T21:55:01.619Z,0
2022-11-18T22:00:01.676Z,0
2022-11-18T22:05:01.671Z,0
2022-11-18T22:10:01.716Z,0
2022-11-18T22:15:01.863Z,0
2022-11-18T22:20:01.650Z,0
2022-11-18T22:25:01.691Z,0
2022-11-18T22:30:01.687Z,0
2022-11-18T22:35:01.824Z,0
2022-11-18T22:40:01.662Z,0
2022-11-18T22:45:01.663Z,0
2022-11-18T22:50:01.688Z,0
2022-11-18T22:55:01.679Z,0
2022-11-18T23:00:01.917Z,0
2022-11-18T23:05:01.987Z,0
2022-11-18T23:10:01.740Z,0
2022-11-18T23:15:01.812Z,0
2022-11-18T23:20:01.747Z,0
2022-11-18T23:25:01.880Z,0
2022-11-18T23:30:01.703Z,0
2022-11-18T23:35:01.710Z,0
2022-11-18T23:40:01.739Z,0
2022-11-18T23:45:05.170Z,0
2022-11-18T23:50:01.938Z,0
2022-11-18T23:55:01.755Z,0
